Skip Navigation LinksHome page > Weather > Current weather Skip Navigation Links

Current Weather

Honolulu Intl, Honolulu

For information only: do not use for flight planning or navigation.
Latest weather
Observation time Wednesday, January 18, 2017 2:53 AM HST
Local time Wednesday, January 18, 2017 3:59 AM HST
Flight conditions Visual Meteorological Conditions
Winds
Wind direction East-Northeast (60°)
Wind speed 10 mph
Visibility 10 mi.
Sky condition
Ceiling 4,200 ft. broken clouds
Cloud layer few clouds 2,800 ft.
Cloud layer scattered clouds 3,500 ft.
Cloud layer broken clouds 4,200 ft.
Temperature 75°F
Dewpoint 61°F
Altimeter 30.05 in.Hg
Derived measurements
Relative humidity 62%
Density altitude 1152 ft.
Sea-level pressure 30.04 in.Hg
Remarks
Automated weather observing station with precipitation discriminator.
METAR PHNL 181253Z 06009KT 10SM FEW028 SCT035 BKN042 24/16 A3005 RMK AO2 SLP174 T02390161

Settings

Location code

InnerDrive.Weather 4.0.6144.1 Release CLR 4.0.30319.34209
Copyright ©2015 Inner Drive Technology. All rights reserved. Portions Copyright ©1986-2015 David Braverman.

Find weather

Site navigation


Skip Navigation Links

Place info

Page info

PayPal - The safer, easier way to pay online!

Return home.

Copyright ©2017 Inner Drive Technology. Purveyors of fine, hand-crafted computer software. Page printed 2017-01-18T13:59:30 UTC.